Time;durP1;ratioP1;P1;durP2;ratioP2;P2;SDS_P1;SDS_P2;PMS_P1;PMS_P2;Temp;Humidity;BMP_temperature;BMP_pressure;BME280_temperature;BME280_humidity;BME280_pressure;Samples;Min_cycle;Max_cycle;Signal;HPM_P1;HPM_P2
2022/07/12 00:01:19;;;;;;;;;;;19.90;54.60;;;;;;5140750;27;19958;-45
2022/07/12 00:03:45;;;;;;;;;;;19.90;54.60;;;;;;5146322;27;19931;-44
2022/07/12 00:06:10;;;;;;;;;;;20.40;59.80;;;;;;5140550;27;19926;-49
2022/07/12 00:08:37;;;;;;;;;;;21.10;62.00;;;;;;5140894;27;19927;-48
2022/07/12 00:11:03;;;;;;;;;;;21.50;60.90;;;;;;5126600;27;19927;-45
2022/07/12 00:13:29;;;;;;;;;;;20.50;58.30;;;;;;5140378;27;19931;-44
2022/07/12 00:15:56;;;;;;;;;;;20.20;57.10;;;;;;5143504;27;19923;-54
2022/07/12 00:18:22;;;;;;;;;;;20.20;55.20;;;;;;5123568;27;20010;-44
2022/07/12 00:20:48;;;;;;;;;;;20.10;54.90;;;;;;5140574;27;20020;-47
2022/07/12 00:23:14;;;;;;;;;;;20.10;54.40;;;;;;5146290;27;19930;-46
2022/07/12 00:25:40;;;;;;;;;;;19.90;54.40;;;;;;5140645;27;20293;-44
2022/07/12 00:28:06;;;;;;;;;;;20.10;57.30;;;;;;5118500;27;19930;-46
2022/07/12 00:30:32;;;;;;;;;;;20.80;61.10;;;;;;5145247;27;20049;-46
2022/07/12 00:32:58;;;;;;;;;;;21.40;61.60;;;;;;5140270;27;19931;-44
2022/07/12 00:35:23;;;;;;;;;;;21.20;59.30;;;;;;5140670;27;19927;-49
2022/07/12 00:37:49;;;;;;;;;;;20.50;57.00;;;;;;5145833;27;19923;-45
2022/07/12 00:40:15;;;;;;;;;;;20.00;56.30;;;;;;5140560;27;20324;-44
2022/07/12 00:42:41;;;;;;;;;;;20.00;55.00;;;;;;5145892;27;20483;-44
2022/07/12 00:45:07;;;;;;;;;;;19.90;54.50;;;;;;5139644;27;20304;-44
2022/07/12 00:47:37;;;;;;;;;;;20.30;59.70;;;;;;5138471;27;19927;-45
2022/07/12 00:50:21;;;;;;;;;;;21.00;61.80;;;;;;5145326;27;20089;-46
2022/07/12 00:52:48;;;;;;;;;;;21.40;61.60;;;;;;5140277;27;19930;-45
2022/07/12 00:55:14;;;;;;;;;;;20.50;58.20;;;;;;5140376;27;19960;-45
2022/07/12 00:57:42;;;;;;;;;;;20.10;56.60;;;;;;5145956;27;20385;-44
2022/07/12 01:00:09;;;;;;;;;;;19.80;55.60;;;;;;5140165;27;19923;-44
2022/07/12 01:02:35;;;;;;;;;;;20.00;54.60;;;;;;5140092;27;19931;-44
2022/07/12 01:05:02;;;;;;;;;;;19.80;54.40;;;;;;5124117;27;19930;-46
2022/07/12 01:07:28;;;;;;;;;;;20.30;58.40;;;;;;5141470;27;20396;-47
2022/07/12 01:09:54;;;;;;;;;;;20.80;62.00;;;;;;5148719;27;19927;-44
2022/07/12 01:12:20;;;;;;;;;;;21.40;61.70;;;;;;5124976;27;19923;-45
2022/07/12 01:14:46;;;;;;;;;;;20.80;59.40;;;;;;5143507;27;19926;-45
2022/07/12 01:17:11;;;;;;;;;;;20.20;57.40;;;;;;5149129;27;19930;-45
2022/07/12 01:19:37;;;;;;;;;;;19.90;56.10;;;;;;5107934;27;20017;-43
2022/07/12 01:22:04;;;;;;;;;;;20.00;54.50;;;;;;5124277;27;20141;-45
2022/07/12 01:24:30;;;;;;;;;;;19.90;54.50;;;;;;5147238;27;20357;-43
2022/07/12 01:26:56;;;;;;;;;;;20.10;57.50;;;;;;5142805;27;19990;-44
2022/07/12 01:29:21;;;;;;;;;;;20.80;61.80;;;;;;5148360;27;19946;-50
2022/07/12 01:31:47;;;;;;;;;;;21.30;61.90;;;;;;5143366;27;19923;-47
2022/07/12 01:34:13;;;;;;;;;;;21.00;59.90;;;;;;5143301;27;19927;-46
2022/07/12 01:36:39;;;;;;;;;;;20.30;57.70;;;;;;5148793;27;19976;-45
2022/07/12 01:39:04;;;;;;;;;;;20.00;56.30;;;;;;5124676;27;20021;-44
2022/07/12 01:41:31;;;;;;;;;;;20.00;55.00;;;;;;5141387;27;20288;-45
2022/07/12 01:43:56;;;;;;;;;;;20.00;53.90;;;;;;5147543;27;20386;-44
2022/07/12 01:46:22;;;;;;;;;;;20.10;55.80;;;;;;5142533;27;19930;-49
2022/07/12 01:48:48;;;;;;;;;;;20.60;61.40;;;;;;5146513;27;19930;-53
2022/07/12 01:51:14;;;;;;;;;;;21.20;62.00;;;;;;5145402;27;19975;-44
2022/07/12 01:53:40;;;;;;;;;;;21.20;59.60;;;;;;5142963;27;20377;-45
2022/07/12 01:56:06;;;;;;;;;;;20.30;57.80;;;;;;5148237;27;19970;-45
2022/07/12 01:58:31;;;;;;;;;;;20.00;56.20;;;;;;5142556;27;19927;-45
2022/07/12 02:00:57;;;;;;;;;;;20.00;54.70;;;;;;5141140;27;19927;-44
2022/07/12 02:03:23;;;;;;;;;;;19.90;54.40;;;;;;5148047;27;19923;-48
2022/07/12 02:05:49;;;;;;;;;;;20.40;60.30;;;;;;5142364;27;20350;-46
2022/07/12 02:08:15;;;;;;;;;;;21.10;61.90;;;;;;5143663;27;19927;-50
2022/07/12 02:10:41;;;;;;;;;;;21.40;60.10;;;;;;5147122;27;19931;-44
2022/07/12 02:13:06;;;;;;;;;;;20.50;57.60;;;;;;5142524;27;20397;-43
2022/07/12 02:15:32;;;;;;;;;;;20.10;56.20;;;;;;5147837;27;19962;-43
2022/07/12 02:17:58;;;;;;;;;;;20.10;54.90;;;;;;5140750;27;20394;-44
2022/07/12 02:20:24;;;;;;;;;;;20.00;54.00;;;;;;5121900;27;19924;-42
2022/07/12 02:22:50;;;;;;;;;;;20.20;57.50;;;;;;5147360;27;19923;-43
2022/07/12 02:25:16;;;;;;;;;;;20.80;61.40;;;;;;5142129;27;20366;-43
2022/07/12 02:27:42;;;;;;;;;;;21.30;61.40;;;;;;5123385;27;20297;-43
2022/07/12 02:30:10;;;;;;;;;;;20.80;58.90;;;;;;5147829;27;20407;-42
2022/07/12 02:32:37;;;;;;;;;;;20.00;57.60;;;;;;5142311;27;19929;-46
2022/07/12 02:35:03;;;;;;;;;;;20.00;55.60;;;;;;5147505;27;19923;-45
2022/07/12 02:37:29;;;;;;;;;;;19.90;54.40;;;;;;5140393;27;20026;-43
2022/07/12 02:40:52;;;;;;;;;;;19.90;53.80;;;;;;5141481;27;20331;-44
2022/07/12 02:42:41;;;;;;;;;;;20.20;58.70;;;;;;5147163;27;20390;-43
2022/07/12 02:45:07;;;;;;;;;;;20.90;61.70;;;;;;5121540;27;19931;-45
2022/07/12 02:47:35;;;;;;;;;;;21.40;61.20;;;;;;5141819;27;19930;-43
2022/07/12 02:50:01;;;;;;;;;;;20.80;59.10;;;;;;5147576;27;20309;-42
2022/07/12 02:52:27;;;;;;;;;;;20.30;56.70;;;;;;5122325;27;19928;-43
2022/07/12 02:54:53;;;;;;;;;;;20.00;55.50;;;;;;5120387;27;19934;-44
2022/07/12 02:57:18;;;;;;;;;;;19.90;54.50;;;;;;5127739;27;19968;-43
2022/07/12 02:59:44;;;;;;;;;;;20.00;55.20;;;;;;5122951;27;19927;-46
2022/07/12 03:02:10;;;;;;;;;;;20.50;61.00;;;;;;5127334;27;19931;-44
2022/07/12 03:04:36;;;;;;;;;;;21.30;61.30;;;;;;5141805;27;20332;-43
2022/07/12 03:07:02;;;;;;;;;;;21.20;59.20;;;;;;5141806;27;20438;-42
2022/07/12 03:09:28;;;;;;;;;;;20.40;57.00;;;;;;5128638;27;19930;-43
2022/07/12 03:11:54;;;;;;;;;;;20.10;55.80;;;;;;5141306;27;19938;-44
2022/07/12 03:14:19;;;;;;;;;;;20.00;54.50;;;;;;5121509;27;20212;-42
2022/07/12 03:16:45;;;;;;;;;;;19.80;54.00;;;;;;5146654;27;19931;-43
2022/07/12 03:19:11;;;;;;;;;;;20.10;58.40;;;;;;5141428;27;19933;-43
2022/07/12 03:21:37;;;;;;;;;;;20.80;61.50;;;;;;5144660;27;19936;-47
2022/07/12 03:24:03;;;;;;;;;;;21.30;61.40;;;;;;5123131;27;19935;-43
2022/07/12 03:26:32;;;;;;;;;;;21.00;58.80;;;;;;5122880;27;19927;-44
2022/07/12 03:29:00;;;;;;;;;;;20.30;56.60;;;;;;5145973;27;20406;-42
2022/07/12 03:31:26;;;;;;;;;;;20.20;55.00;;;;;;5140041;27;20037;-42
2022/07/12 03:33:52;;;;;;;;;;;20.10;53.50;;;;;;5121641;27;20459;-44
2022/07/12 03:36:18;;;;;;;;;;;20.00;56.20;;;;;;5146237;27;19927;-44
2022/07/12 03:38:44;;;;;;;;;;;20.70;60.90;;;;;;5122507;27;20074;-44
2022/07/12 03:41:10;;;;;;;;;;;21.30;61.00;;;;;;5142104;27;20169;-52
2022/07/12 03:43:35;;;;;;;;;;;21.60;59.90;;;;;;5145990;27;20293;-56
2022/07/12 03:46:01;;;;;;;;;;;21.50;58.70;;;;;;5140793;27;19932;-55
2022/07/12 03:48:27;;;;;;;;;;;21.50;57.70;;;;;;5146307;27;19961;-56
2022/07/12 03:50:53;;;;;;;;;;;21.40;57.30;;;;;;5139207;27;19979;-58
2022/07/12 03:53:19;;;;;;;;;;;21.50;56.80;;;;;;5140536;27;19923;-59
2022/07/12 03:55:45;;;;;;;;;;;21.50;56.60;;;;;;5145900;27;19934;-56
2022/07/12 03:58:10;;;;;;;;;;;21.60;56.20;;;;;;5140899;27;19923;-57
2022/07/12 04:00:37;;;;;;;;;;;21.80;55.80;;;;;;5140888;27;19935;-57
2022/07/12 04:03:02;;;;;;;;;;;21.70;55.70;;;;;;5146335;27;19923;-56
2022/07/12 04:05:28;;;;;;;;;;;21.80;55.40;;;;;;5120433;27;19931;-55
2022/07/12 04:07:54;;;;;;;;;;;21.90;55.10;;;;;;5145117;27;19924;-57
2022/07/12 04:10:20;;;;;;;;;;;21.80;55.00;;;;;;5139525;27;20416;-56
2022/07/12 04:12:46;;;;;;;;;;;21.90;54.70;;;;;;5140540;27;20338;-56
2022/07/12 04:15:12;;;;;;;;;;;21.90;54.70;;;;;;5146151;27;19927;-55
2022/07/12 04:17:38;;;;;;;;;;;22.00;54.60;;;;;;5140790;27;19931;-56
2022/07/12 04:20:04;;;;;;;;;;;21.90;54.60;;;;;;5122278;27;20420;-57
2022/07/12 04:22:30;;;;;;;;;;;22.00;54.50;;;;;;5127550;27;19923;-57
2022/07/12 04:24:56;;;;;;;;;;;22.10;54.30;;;;;;5140148;27;19972;-56
2022/07/12 04:27:21;;;;;;;;;;;22.00;54.20;;;;;;5144204;27;19927;-55
2022/07/12 04:29:48;;;;;;;;;;;22.10;54.20;;;;;;5140059;27;19961;-56
2022/07/12 04:32:13;;;;;;;;;;;22.10;54.00;;;;;;5140146;27;19990;-56
2022/07/12 04:34:39;;;;;;;;;;;22.10;53.70;;;;;;5145768;27;19930;-55
2022/07/12 04:37:05;;;;;;;;;;;22.00;53.80;;;;;;5140299;27;19948;-58
2022/07/12 04:39:31;;;;;;;;;;;22.20;53.50;;;;;;5140469;27;20433;-57
2022/07/12 04:41:57;;;;;;;;;;;22.30;53.30;;;;;;5148568;27;19923;-57
2022/07/12 04:44:22;;;;;;;;;;;22.20;53.20;;;;;;5142888;27;20450;-55
2022/07/12 04:46:48;;;;;;;;;;;22.30;53.00;;;;;;5147640;27;20425;-56
2022/07/12 04:49:14;;;;;;;;;;;22.30;53.10;;;;;;5144202;27;19923;-55
2022/07/12 04:51:40;;;;;;;;;;;22.30;52.90;;;;;;5143953;27;19927;-51
2022/07/12 04:54:05;;;;;;;;;;;21.70;53.70;;;;;;5149249;27;19968;-58
2022/07/12 04:56:31;;;;;;;;;;;21.30;53.10;;;;;;5143604;27;19965;-58
2022/07/12 04:58:57;;;;;;;;;;;21.60;53.90;;;;;;5143414;27;20618;-58
2022/07/12 05:01:23;;;;;;;;;;;21.70;54.10;;;;;;5148988;27;19927;-57
2022/07/12 05:03:49;;;;;;;;;;;21.70;54.20;;;;;;5123359;27;19924;-58
2022/07/12 05:06:14;;;;;;;;;;;21.70;54.30;;;;;;5145807;27;19972;-57
2022/07/12 05:08:40;;;;;;;;;;;21.80;54.10;;;;;;5146243;27;19930;-58
2022/07/12 05:11:06;;;;;;;;;;;21.80;53.60;;;;;;5125258;27;20409;-59
2022/07/12 05:13:32;;;;;;;;;;;21.80;53.40;;;;;;5148976;27;19931;-57
2022/07/12 05:15:57;;;;;;;;;;;21.90;53.00;;;;;;5143492;27;19923;-57
2022/07/12 05:18:23;;;;;;;;;;;22.00;53.00;;;;;;5143589;27;19931;-58
2022/07/12 05:20:49;;;;;;;;;;;21.80;53.50;;;;;;5148225;27;20028;-59
2022/07/12 05:23:15;;;;;;;;;;;21.90;53.60;;;;;;5141703;27;19934;-58
2022/07/12 05:25:40;;;;;;;;;;;21.80;54.00;;;;;;5143696;27;19967;-56
2022/07/12 05:28:06;;;;;;;;;;;21.80;54.20;;;;;;5148007;27;19923;-58
2022/07/12 05:30:33;;;;;;;;;;;21.80;54.00;;;;;;5142908;27;19930;-57
2022/07/12 05:32:58;;;;;;;;;;;22.00;53.60;;;;;;5148560;27;19929;-59
2022/07/12 05:35:24;;;;;;;;;;;21.70;54.40;;;;;;5143312;27;20384;-57
2022/07/12 05:37:51;;;;;;;;;;;21.80;53.90;;;;;;5143301;27;19937;-59
2022/07/12 05:40:18;;;;;;;;;;;22.00;53.50;;;;;;5147141;27;19974;-59
2022/07/12 05:42:45;;;;;;;;;;;21.90;53.80;;;;;;5124068;27;20441;-60
2022/07/12 05:45:10;;;;;;;;;;;21.90;53.80;;;;;;5142821;27;20194;-59
2022/07/12 05:47:36;;;;;;;;;;;21.90;54.00;;;;;;5148566;27;19923;-58
2022/07/12 05:50:03;;;;;;;;;;;21.80;54.00;;;;;;5143060;27;19935;-58
2022/07/12 05:55:14;;;;;;;;;;;22.00;53.40;;;;;;5148593;27;19923;-58
2022/07/12 05:57:39;;;;;;;;;;;22.00;53.20;;;;;;5142283;27;20367;-60
2022/07/12 06:00:05;;;;;;;;;;;22.00;53.20;;;;;;5146766;27;20405;-59
2022/07/12 06:02:31;;;;;;;;;;;22.00;53.10;;;;;;5142445;27;19975;-59
2022/07/12 06:04:57;;;;;;;;;;;21.90;53.40;;;;;;5122630;27;20332;-59
2022/07/12 06:07:23;;;;;;;;;;;21.90;53.60;;;;;;5147967;27;19927;-60
2022/07/12 06:09:49;;;;;;;;;;;22.00;53.50;;;;;;5142752;27;19931;-57
2022/07/12 06:12:14;;;;;;;;;;;22.00;53.50;;;;;;5142484;27;19923;-59
2022/07/12 06:14:40;;;;;;;;;;;21.90;53.60;;;;;;5147901;27;19930;-59
2022/07/12 06:17:07;;;;;;;;;;;20.80;55.00;;;;;;5141281;27;19974;-59
2022/07/12 06:19:33;;;;;;;;;;;19.80;56.20;;;;;;5147241;27;19951;-60
2022/07/12 06:21:59;;;;;;;;;;;20.10;59.50;;;;;;5142687;27;20347;-59
2022/07/12 06:24:24;;;;;;;;;;;21.10;60.20;;;;;;5142446;27;19936;-59
2022/07/12 06:26:50;;;;;;;;;;;21.60;56.60;;;;;;5147798;27;19974;-59
2022/07/12 06:29:16;;;;;;;;;;;20.70;56.70;;;;;;5142960;27;19931;-58
2022/07/12 06:31:42;;;;;;;;;;;20.30;56.70;;;;;;5142780;27;20737;-57
2022/07/12 06:34:07;;;;;;;;;;;20.30;56.40;;;;;;5129062;27;19923;-56
2022/07/12 06:36:33;;;;;;;;;;;20.30;55.50;;;;;;5141708;27;19949;-58
2022/07/12 06:38:59;;;;;;;;;;;20.20;55.30;;;;;;5147769;27;19944;-57
2022/07/12 06:41:25;;;;;;;;;;;20.40;54.50;;;;;;5143049;27;20340;-57
2022/07/12 06:43:51;;;;;;;;;;;20.10;55.40;;;;;;5143091;27;19934;-59
2022/07/12 06:46:16;;;;;;;;;;;20.00;55.20;;;;;;5147703;27;20351;-56
2022/07/12 06:48:42;;;;;;;;;;;20.00;55.30;;;;;;5143378;27;20234;-57
2022/07/12 06:51:08;;;;;;;;;;;20.10;54.80;;;;;;5142496;27;19923;-58
2022/07/12 06:53:34;;;;;;;;;;;20.00;54.80;;;;;;5146642;27;19927;-57
2022/07/12 06:56:00;;;;;;;;;;;19.70;55.70;;;;;;5141920;27;19927;-56
2022/07/12 06:58:25;;;;;;;;;;;19.90;55.20;;;;;;5146613;27;19970;-58
2022/07/12 07:00:51;;;;;;;;;;;20.00;55.30;;;;;;5143573;27;19927;-55
2022/07/12 07:03:17;;;;;;;;;;;19.80;55.80;;;;;;5142496;27;19923;-54
2022/07/12 07:05:43;;;;;;;;;;;19.80;55.80;;;;;;5146321;27;20433;-58
2022/07/12 07:08:09;;;;;;;;;;;19.70;55.90;;;;;;5142589;27;20006;-57
2022/07/12 07:10:34;;;;;;;;;;;20.10;55.10;;;;;;5142561;27;19923;-57
2022/07/12 07:13:00;;;;;;;;;;;19.80;55.80;;;;;;5146103;27;19967;-54
2022/07/12 07:15:26;;;;;;;;;;;19.80;55.40;;;;;;5124989;27;20359;-51
2022/07/12 07:17:52;;;;;;;;;;;19.70;55.50;;;;;;5145667;27;20009;-54
2022/07/12 07:20:18;;;;;;;;;;;19.80;54.80;;;;;;5146066;27;19923;-52
2022/07/12 07:22:44;;;;;;;;;;;20.00;54.40;;;;;;5144024;27;19952;-52
2022/07/12 07:25:10;;;;;;;;;;;19.80;55.00;;;;;;5147692;27;20374;-52
2022/07/12 07:27:35;;;;;;;;;;;20.10;54.30;;;;;;5125622;27;19923;-50
2022/07/12 07:32:46;;;;;;;;;;;19.90;54.90;;;;;;5147344;27;19931;-51
2022/07/12 07:35:11;;;;;;;;;;;19.70;55.50;;;;;;5143793;27;19931;-49
2022/07/12 07:37:37;;;;;;;;;;;19.90;54.80;;;;;;5144234;27;20456;-54
2022/07/12 07:40:03;;;;;;;;;;;19.80;54.90;;;;;;5127182;27;19931;-47
2022/07/12 07:42:29;;;;;;;;;;;19.80;54.80;;;;;;5144093;27;20438;-52
2022/07/12 07:44:55;;;;;;;;;;;19.90;54.60;;;;;;5146357;27;19967;-57
2022/07/12 07:47:21;;;;;;;;;;;19.80;54.70;;;;;;5144961;27;19930;-48
2022/07/12 07:49:46;;;;;;;;;;;19.80;54.90;;;;;;5142229;27;19923;-54
2022/07/12 07:52:12;;;;;;;;;;;20.00;54.00;;;;;;5147093;27;19970;-48
2022/07/12 07:54:38;;;;;;;;;;;19.90;54.50;;;;;;5143509;27;19923;-49
2022/07/12 07:57:04;;;;;;;;;;;19.80;54.70;;;;;;5125262;27;19930;-51
2022/07/12 07:59:30;;;;;;;;;;;19.90;54.40;;;;;;5147288;27;19923;-49
2022/07/12 08:01:56;;;;;;;;;;;19.80;54.50;;;;;;5125119;27;19983;-49
2022/07/12 08:04:22;;;;;;;;;;;19.80;54.00;;;;;;5143478;27;20285;-55
2022/07/12 08:06:48;;;;;;;;;;;20.70;56.30;;;;;;5145154;27;19936;-52
2022/07/12 08:09:14;;;;;;;;;;;21.40;55.90;;;;;;5140903;27;19935;-48
2022/07/12 08:11:40;;;;;;;;;;;21.20;53.50;;;;;;5146230;27;19927;-48
2022/07/12 08:14:06;;;;;;;;;;;20.30;54.20;;;;;;5123453;27;19927;-47
2022/07/12 08:16:32;;;;;;;;;;;20.30;53.50;;;;;;5144317;27;19980;-49
2022/07/12 08:18:58;;;;;;;;;;;20.00;53.40;;;;;;5132166;27;20021;-48
2022/07/12 08:21:23;;;;;;;;;;;19.80;53.80;;;;;;5146266;27;20374;-46
2022/07/12 08:23:49;;;;;;;;;;;19.90;53.30;;;;;;5127313;27;19923;-49
2022/07/12 08:26:15;;;;;;;;;;;20.00;53.20;;;;;;5149038;27;20029;-50
2022/07/12 08:28:41;;;;;;;;;;;19.90;53.50;;;;;;5127260;27;19948;-48
2022/07/12 08:31:07;;;;;;;;;;;19.90;54.10;;;;;;5149939;27;19934;-48
2022/07/12 08:33:33;;;;;;;;;;;19.90;53.70;;;;;;5145409;27;19923;-48
2022/07/12 08:35:59;;;;;;;;;;;19.90;53.90;;;;;;5145828;27;19927;-48
2022/07/12 08:38:24;;;;;;;;;;;20.00;53.70;;;;;;5150267;27;19923;-46
2022/07/12 08:40:50;;;;;;;;;;;20.00;53.40;;;;;;5145511;27;20302;-48
2022/07/12 08:43:16;;;;;;;;;;;19.90;53.80;;;;;;5145059;27;19923;-50
2022/07/12 08:45:42;;;;;;;;;;;20.00;53.50;;;;;;5148647;27;20370;-49
2022/07/12 08:48:08;;;;;;;;;;;20.00;53.60;;;;;;5145401;27;20314;-46
2022/07/12 08:50:33;;;;;;;;;;;19.90;54.00;;;;;;5149577;27;19957;-46
2022/07/12 08:52:59;;;;;;;;;;;19.90;53.70;;;;;;5126062;27;19931;-50
2022/07/12 08:55:26;;;;;;;;;;;19.90;53.70;;;;;;5145432;27;19972;-46
2022/07/12 08:57:52;;;;;;;;;;;19.90;53.60;;;;;;5149644;27;20363;-45
2022/07/12 09:00:19;;;;;;;;;;;19.90;53.40;;;;;;5126046;27;19926;-48
2022/07/12 09:02:48;;;;;;;;;;;20.00;53.50;;;;;;5143845;27;19922;-50
2022/07/12 09:05:15;;;;;;;;;;;20.10;53.40;;;;;;5148984;27;19927;-48
2022/07/12 09:07:41;;;;;;;;;;;19.90;53.90;;;;;;5124531;27;20332;-51
2022/07/12 09:10:07;;;;;;;;;;;20.00;53.90;;;;;;5146290;27;19922;-59
2022/07/12 09:12:36;;;;;;;;;;;20.10;54.10;;;;;;5146400;27;19927;-52
2022/07/12 09:15:11;;;;;;;;;;;20.10;53.50;;;;;;5143617;27;19927;-49
2022/07/12 09:17:37;;;;;;;;;;;20.10;53.60;;;;;;5148926;27;19931;-51
2022/07/12 09:20:03;;;;;;;;;;;20.00;53.40;;;;;;5123745;27;19935;-51
2022/07/12 09:22:29;;;;;;;;;;;20.00;53.60;;;;;;5123709;27;19933;-51
2022/07/12 09:24:54;;;;;;;;;;;19.90;53.50;;;;;;5148351;27;19923;-50
2022/07/12 09:27:24;;;;;;;;;;;20.00;52.90;;;;;;5142056;27;19927;-52
2022/07/12 09:29:50;;;;;;;;;;;20.10;52.70;;;;;;5143509;27;20025;-48
2022/07/12 09:37:46;;;;;;;;;;;20.00;53.10;;;;;;5127019;27;19933;-50
2022/07/12 09:40:12;;;;;;;;;;;20.00;53.10;;;;;;5128522;27;19923;-51
2022/07/12 09:42:38;;;;;;;;;;;20.10;53.10;;;;;;5124038;27;20263;-51
2022/07/12 09:45:05;;;;;;;;;;;20.10;53.20;;;;;;5142780;27;20342;-53
2022/07/12 09:47:31;;;;;;;;;;;20.00;53.10;;;;;;5148320;27;19930;-49
2022/07/12 09:49:56;;;;;;;;;;;20.00;53.00;;;;;;5142861;27;19971;-52
2022/07/12 09:52:23;;;;;;;;;;;20.00;52.90;;;;;;5129258;27;19924;-50
2022/07/12 09:54:52;;;;;;;;;;;19.90;52.90;;;;;;5142850;27;19927;-49
2022/07/12 09:57:21;;;;;;;;;;;19.90;52.90;;;;;;5123018;27;19979;-48
2022/07/12 09:59:48;;;;;;;;;;;19.90;52.90;;;;;;5127358;27;20353;-48
2022/07/12 10:02:15;;;;;;;;;;;19.90;52.90;;;;;;5142440;27;19926;-51
2022/07/12 10:04:41;;;;;;;;;;;19.80;53.20;;;;;;5142667;27;20404;-51
2022/07/12 10:07:08;;;;;;;;;;;19.80;53.30;;;;;;5148052;27;19923;-51
2022/07/12 10:09:34;;;;;;;;;;;19.90;53.20;;;;;;5142778;27;19971;-48
2022/07/12 10:12:00;;;;;;;;;;;20.00;53.20;;;;;;5111021;27;20301;-55
2022/07/12 10:14:26;;;;;;;;;;;19.90;53.40;;;;;;5125139;27;19927;-51
2022/07/12 10:16:52;;;;;;;;;;;20.00;53.40;;;;;;5140752;27;20290;-52
2022/07/12 10:19:21;;;;;;;;;;;20.00;53.10;;;;;;5147326;27;20025;-47
2022/07/12 10:21:47;;;;;;;;;;;20.00;53.30;;;;;;5142088;27;19929;-49
2022/07/12 10:24:32;;;;;;;;;;;19.80;53.80;;;;;;5123952;27;20020;-51
2022/07/12 10:27:13;;;;;;;;;;;20.10;52.80;;;;;;5147724;27;20299;-50
2022/07/12 10:29:44;;;;;;;;;;;19.90;53.30;;;;;;5142489;27;19954;-47
2022/07/12 10:32:24;;;;;;;;;;;19.90;53.50;;;;;;5123469;27;20367;-53
2022/07/12 10:34:59;;;;;;;;;;;20.10;53.00;;;;;;5145637;27;20385;-52
2022/07/12 10:37:25;;;;;;;;;;;20.00;53.30;;;;;;5141416;27;20021;-51
2022/07/12 10:40:09;;;;;;;;;;;20.10;53.30;;;;;;5141697;27;19923;-51
2022/07/12 10:42:35;;;;;;;;;;;20.00;53.20;;;;;;5147614;27;20436;-48
2022/07/12 10:45:14;;;;;;;;;;;20.20;52.80;;;;;;5142219;27;20017;-47
2022/07/12 10:47:55;;;;;;;;;;;20.00;53.30;;;;;;5142366;27;20382;-52
2022/07/12 10:50:40;;;;;;;;;;;20.00;53.40;;;;;;5146629;27;20359;-49
2022/07/12 10:53:18;;;;;;;;;;;20.10;52.80;;;;;;5140953;27;19926;-50
2022/07/12 10:56:03;;;;;;;;;;;20.10;52.70;;;;;;5141350;27;19934;-51
2022/07/12 10:58:42;;;;;;;;;;;20.00;52.90;;;;;;5145058;27;20007;-58
2022/07/12 11:01:12;;;;;;;;;;;20.10;52.40;;;;;;5147287;27;20365;-49
2022/07/12 11:03:51;;;;;;;;;;;20.10;52.70;;;;;;5138321;27;19982;-51
2022/07/12 11:06:21;;;;;;;;;;;20.00;52.80;;;;;;5143461;27;19951;-59
2022/07/12 11:09:00;;;;;;;;;;;20.00;53.20;;;;;;5147224;27;19931;-53
2022/07/12 11:11:39;;;;;;;;;;;20.20;52.60;;;;;;5140249;27;20412;-53
2022/07/12 11:14:05;;;;;;;;;;;20.10;53.00;;;;;;5141378;27;19934;-58
2022/07/12 11:16:31;;;;;;;;;;;20.00;53.20;;;;;;5146803;27;20262;-49
2022/07/12 11:18:57;;;;;;;;;;;20.30;52.60;;;;;;5141457;27;19926;-49
2022/07/12 11:21:23;;;;;;;;;;;20.00;53.20;;;;;;5146987;27;19923;-52
2022/07/12 11:23:49;;;;;;;;;;;20.00;53.10;;;;;;5141602;27;19937;-48
2022/07/12 11:26:15;;;;;;;;;;;20.10;52.90;;;;;;5141340;27;19923;-48
2022/07/12 11:28:41;;;;;;;;;;;20.20;52.90;;;;;;5145689;27;20071;-51
2022/07/12 11:31:15;;;;;;;;;;;20.20;53.00;;;;;;5121845;27;20441;-53
2022/07/12 11:33:44;;;;;;;;;;;20.10;52.90;;;;;;5140849;27;20446;-53
2022/07/12 11:36:10;;;;;;;;;;;20.10;52.60;;;;;;5142817;27;19930;-52
2022/07/12 11:38:37;;;;;;;;;;;20.20;52.50;;;;;;5122296;27;19929;-51
2022/07/12 11:41:03;;;;;;;;;;;20.20;52.40;;;;;;5144996;27;19929;-59
2022/07/12 11:43:29;;;;;;;;;;;20.20;52.40;;;;;;5143505;27;20346;-49
2022/07/12 11:45:55;;;;;;;;;;;20.20;53.00;;;;;;5140988;27;19923;-50
2022/07/12 11:48:21;;;;;;;;;;;20.20;52.60;;;;;;5126140;27;20348;-50
2022/07/12 11:50:47;;;;;;;;;;;20.10;52.20;;;;;;5139705;27;19950;-48
2022/07/12 11:53:16;;;;;;;;;;;20.20;51.60;;;;;;5140772;27;20396;-48
2022/07/12 11:55:46;;;;;;;;;;;20.20;51.70;;;;;;5146542;27;19929;-53
2022/07/12 11:58:12;;;;;;;;;;;20.10;51.90;;;;;;5141000;27;20313;-53
2022/07/12 12:00:38;;;;;;;;;;;20.20;51.80;;;;;;5122125;27;19923;-52
2022/07/12 12:03:04;;;;;;;;;;;20.20;51.70;;;;;;5146038;27;19923;-51
2022/07/12 12:05:30;;;;;;;;;;;20.20;51.40;;;;;;5139380;27;19923;-50
2022/07/12 12:07:57;;;;;;;;;;;20.20;51.30;;;;;;5145065;27;19977;-53
2022/07/12 12:10:22;;;;;;;;;;;20.10;51.50;;;;;;5104912;27;19979;-53
2022/07/12 12:12:48;;;;;;;;;;;20.10;51.90;;;;;;5122074;27;19931;-50
2022/07/12 12:15:15;;;;;;;;;;;20.10;51.90;;;;;;5146040;27;19931;-50
2022/07/12 12:17:58;;;;;;;;;;;20.30;51.70;;;;;;5140609;27;19923;-51
2022/07/12 12:20:31;;;;;;;;;;;20.40;51.40;;;;;;5122280;27;19986;-54
2022/07/12 12:22:57;;;;;;;;;;;20.30;51.70;;;;;;5145890;27;19923;-50
2022/07/12 12:25:23;;;;;;;;;;;20.30;51.70;;;;;;5138803;27;19923;-49
2022/07/12 12:27:49;;;;;;;;;;;20.30;51.30;;;;;;5121846;27;19929;-56
2022/07/12 12:30:16;;;;;;;;;;;20.40;51.30;;;;;;5145717;27;19968;-52
2022/07/12 12:32:46;;;;;;;;;;;20.30;51.10;;;;;;5140393;27;19923;-54
2022/07/12 12:35:12;;;;;;;;;;;20.30;50.90;;;;;;5145027;27;19946;-57
2022/07/12 12:37:38;;;;;;;;;;;20.30;51.10;;;;;;5141800;27;19971;-52
2022/07/12 12:40:05;;;;;;;;;;;20.40;50.80;;;;;;5140328;27;19923;-48
2022/07/12 12:42:31;;;;;;;;;;;20.40;51.00;;;;;;5144512;27;20060;-53
2022/07/12 12:44:56;;;;;;;;;;;20.30;51.20;;;;;;5120522;27;20349;-47
2022/07/12 12:47:31;;;;;;;;;;;20.50;50.90;;;;;;5139829;27;19930;-48
2022/07/12 12:49:59;;;;;;;;;;;20.50;50.90;;;;;;5145582;27;20480;-48
2022/07/12 12:52:26;;;;;;;;;;;20.50;51.20;;;;;;5140129;27;20056;-49
2022/07/12 12:54:52;;;;;;;;;;;20.30;51.40;;;;;;5121547;27;20009;-50
2022/07/12 12:57:18;;;;;;;;;;;20.40;50.90;;;;;;5127027;27;20389;-51
2022/07/12 12:59:44;;;;;;;;;;;20.50;50.70;;;;;;5139540;27;19934;-57
2022/07/12 13:02:09;;;;;;;;;;;20.60;50.80;;;;;;5145029;27;20271;-48
2022/07/12 13:04:36;;;;;;;;;;;20.50;51.20;;;;;;5143088;27;19923;-47
2022/07/12 13:07:02;;;;;;;;;;;20.40;51.10;;;;;;5143169;27;20022;-48
2022/07/12 13:09:29;;;;;;;;;;;20.40;50.90;;;;;;5148928;27;19931;-46
2022/07/12 13:11:58;;;;;;;;;;;20.50;50.80;;;;;;5124995;27;19929;-47
2022/07/12 13:14:24;;;;;;;;;;;20.60;50.80;;;;;;5123755;27;20204;-46
2022/07/12 13:16:50;;;;;;;;;;;20.30;51.30;;;;;;5148717;27;19930;-45
2022/07/12 13:19:16;;;;;;;;;;;20.40;51.10;;;;;;5141973;27;19923;-48
2022/07/12 13:21:42;;;;;;;;;;;20.30;51.30;;;;;;5145544;27;20364;-59
2022/07/12 13:24:08;;;;;;;;;;;20.30;51.50;;;;;;5127019;27;19929;-47
2022/07/12 13:26:34;;;;;;;;;;;20.50;51.50;;;;;;5143024;27;19967;-46
2022/07/12 13:28:59;;;;;;;;;;;20.60;51.00;;;;;;5148772;27;19930;-44
2022/07/12 13:31:26;;;;;;;;;;;20.30;51.80;;;;;;5143113;27;19970;-45
2022/07/12 13:33:52;;;;;;;;;;;20.40;51.80;;;;;;5142993;27;19953;-46
2022/07/12 13:36:18;;;;;;;;;;;20.40;51.50;;;;;;5148177;27;20018;-48
2022/07/12 13:38:43;;;;;;;;;;;20.40;51.50;;;;;;5141176;27;19923;-49
2022/07/12 13:41:09;;;;;;;;;;;20.40;51.70;;;;;;5143377;27;19923;-54
2022/07/12 13:43:36;;;;;;;;;;;20.50;51.50;;;;;;5147782;27;20409;-47
2022/07/12 13:46:02;;;;;;;;;;;20.50;51.30;;;;;;5142688;27;19944;-48
2022/07/12 13:48:28;;;;;;;;;;;20.50;51.00;;;;;;5148232;27;19930;-50
2022/07/12 13:50:53;;;;;;;;;;;20.60;51.20;;;;;;5143018;27;19923;-49
2022/07/12 13:53:19;;;;;;;;;;;20.80;50.80;;;;;;5143076;27;19927;-49
2022/07/12 13:55:45;;;;;;;;;;;20.80;50.60;;;;;;5147074;27;19934;-45
2022/07/12 13:58:12;;;;;;;;;;;20.70;51.00;;;;;;5141493;27;19923;-46
2022/07/12 14:00:38;;;;;;;;;;;20.70;50.90;;;;;;5142054;27;19975;-46
2022/07/12 14:03:03;;;;;;;;;;;20.60;50.70;;;;;;5147874;27;19992;-46
2022/07/12 14:05:29;;;;;;;;;;;20.70;50.40;;;;;;5142624;27;19948;-46
2022/07/12 14:07:55;;;;;;;;;;;20.70;49.90;;;;;;5148271;27;19946;-45
2022/07/12 14:10:21;;;;;;;;;;;20.70;49.80;;;;;;5123890;27;19923;-47
2022/07/12 14:12:48;;;;;;;;;;;20.70;50.00;;;;;;5142363;27;19934;-45
2022/07/12 14:15:14;;;;;;;;;;;20.70;50.00;;;;;;5145882;27;19966;-48
2022/07/12 14:17:40;;;;;;;;;;;20.70;50.00;;;;;;5141983;27;20335;-48
2022/07/12 14:20:06;;;;;;;;;;;20.70;50.30;;;;;;5142082;27;20436;-48
2022/07/12 14:22:32;;;;;;;;;;;20.70;50.40;;;;;;5147628;27;20290;-48
2022/07/12 14:24:58;;;;;;;;;;;20.50;50.70;;;;;;5142374;27;19923;-45